Time;durP1;ratioP1;P1;durP2;ratioP2;P2;SDS_P1;SDS_P2;PMS_P1;PMS_P2;Temp;Humidity;BMP_temperature;BMP_pressure;BME280_temperature;BME280_humidity;BME280_pressure;Samples;Min_cycle;Max_cycle;Signal;HPM_P1;HPM_P2
2022/05/16 00:00:14;;;;;;;12.20;3.80;;;13.10;98.90;;;;;;4236854;28;20075;-84
2022/05/16 00:02:15;;;;;;;9.85;3.33;;;13.10;99.10;;;;;;4235753;28;20515;-84
2022/05/16 00:04:16;;;;;;;7.78;4.07;;;13.10;99.10;;;;;;4236608;28;20100;-84
2022/05/16 00:06:18;;;;;;;6.95;2.90;;;13.10;99.10;;;;;;4235458;28;20073;-84
2022/05/16 00:08:19;;;;;;;8.10;3.15;;;13.10;99.20;;;;;;4234482;28;20487;-84
2022/05/16 00:10:20;;;;;;;11.32;3.20;;;13.10;99.20;;;;;;4214755;28;20048;-84
2022/05/16 00:12:21;;;;;;;4.55;2.22;;;13.10;99.20;;;;;;4233250;28;20489;-84
2022/05/16 00:14:23;;;;;;;8.50;3.00;;;13.10;99.30;;;;;;4232873;28;20040;-84
2022/05/16 00:16:24;;;;;;;9.75;2.92;;;13.10;99.30;;;;;;4214630;28;20048;-84
2022/05/16 00:18:25;;;;;;;5.45;3.10;;;13.10;99.30;;;;;;4233128;28;20579;-84
2022/05/16 00:20:28;;;;;;;11.50;3.75;;;13.10;99.40;;;;;;4232923;28;20087;-84
2022/05/16 00:22:28;;;;;;;9.88;3.40;;;13.20;99.50;;;;;;4216522;28;20412;-84
2022/05/16 00:24:29;;;;;;;6.22;2.40;;;13.20;99.60;;;;;;4235906;28;20031;-84
2022/05/16 00:26:30;;;;;;;6.88;2.85;;;13.20;99.70;;;;;;4199429;28;20045;-84
2022/05/16 00:28:30;;;;;;;13.35;3.40;;;13.20;99.70;;;;;;4234877;28;20118;-84
2022/05/16 00:30:31;;;;;;;8.90;3.30;;;13.20;99.70;;;;;;4234379;28;20040;-84
2022/05/16 00:32:32;;;;;;;10.55;3.40;;;13.20;99.80;;;;;;4232845;28;20057;-84
2022/05/16 00:34:32;;;;;;;10.43;2.83;;;13.20;99.70;;;;;;4233204;28;20527;-84
2022/05/16 00:36:35;;;;;;;7.65;2.80;;;13.20;99.90;;;;;;4214210;28;20058;-85
2022/05/16 00:38:37;;;;;;;7.32;3.05;;;13.20;99.90;;;;;;4236356;27;20399;-84
2022/05/16 00:40:38;;;;;;;8.18;2.60;;;13.20;99.90;;;;;;4249282;27;20451;-85
2022/05/16 00:42:39;;;;;;;10.02;2.95;;;13.20;99.90;;;;;;4248867;27;20039;-85
2022/05/16 00:44:40;;;;;;;6.97;2.75;;;13.20;99.90;;;;;;4249420;27;20479;-84
2022/05/16 00:46:41;;;;;;;9.38;3.28;;;13.20;99.90;;;;;;4248895;27;20121;-84
2022/05/16 00:48:42;;;;;;;10.90;3.80;;;13.20;99.90;;;;;;4248867;27;20388;-84
2022/05/16 00:50:43;;;;;;;12.68;3.53;;;13.20;99.90;;;;;;4249882;27;20043;-84
2022/05/16 00:52:47;;;;;;;10.70;3.03;;;13.20;99.90;;;;;;4249326;27;20479;-84
2022/05/16 00:54:49;;;;;;;8.75;2.80;;;13.20;99.90;;;;;;4251076;27;20069;-84
2022/05/16 00:56:55;;;;;;;10.20;3.17;;;13.10;99.90;;;;;;4255284;27;20047;-84
2022/05/16 00:58:56;;;;;;;5.82;2.45;;;13.10;99.90;;;;;;4254183;27;20046;-85
2022/05/16 01:00:56;;;;;;;7.82;2.78;;;13.10;99.90;;;;;;4255211;27;20112;-84
2022/05/16 01:05:25;;;;;;;8.32;3.03;;;13.10;99.90;;;;;;4252557;27;20514;-84
2022/05/16 01:07:31;;;;;;;5.28;2.75;;;13.10;99.90;;;;;;4252678;27;20139;-84
2022/05/16 01:09:32;;;;;;;5.22;2.30;;;13.10;99.90;;;;;;4252917;27;20039;-85
2022/05/16 01:11:36;;;;;;;4.93;2.60;;;13.10;99.90;;;;;;4252678;27;20054;-85
2022/05/16 01:13:37;;;;;;;5.68;2.35;;;12.90;99.90;;;;;;4253731;27;20050;-85
2022/05/16 01:15:45;;;;;;;6.90;2.80;;;13.00;99.90;;;;;;4234331;28;20081;-85
2022/05/16 01:17:47;;;;;;;4.78;2.10;;;13.10;99.90;;;;;;4231114;28;20044;-83
2022/05/16 01:19:48;;;;;;;5.60;2.10;;;13.00;99.90;;;;;;4248342;27;20423;-83
2022/05/16 01:21:49;;;;;;;3.88;1.80;;;13.00;99.90;;;;;;4247638;28;20039;-84
2022/05/16 01:24:03;;;;;;;5.35;2.63;;;13.00;99.90;;;;;;4247249;28;20035;-83
2022/05/16 01:26:10;;;;;;;8.02;3.13;;;13.00;99.90;;;;;;4248121;28;20574;-83
2022/05/16 01:28:10;;;;;;;6.25;2.15;;;13.00;99.90;;;;;;4247746;28;20367;-83
2022/05/16 01:30:13;;;;;;;4.80;2.25;;;13.00;99.90;;;;;;4247780;28;20078;-83
2022/05/16 01:32:13;;;;;;;6.97;2.20;;;13.00;99.80;;;;;;4247869;28;20118;-83
2022/05/16 01:34:15;;;;;;;5.53;1.98;;;12.90;99.80;;;;;;4247476;28;20039;-83
2022/05/16 01:36:19;;;;;;;4.10;2.22;;;12.90;99.70;;;;;;4247292;28;20051;-84
2022/05/16 01:38:22;;;;;;;4.40;1.80;;;12.90;99.70;;;;;;4247611;28;20043;-84
2022/05/16 01:40:23;;;;;;;8.43;2.15;;;12.90;99.70;;;;;;4247395;28;20542;-84
2022/05/16 01:42:23;;;;;;;3.38;1.77;;;12.90;99.60;;;;;;4247485;28;20054;-84
2022/05/16 01:44:24;;;;;;;4.35;1.92;;;12.90;99.60;;;;;;4247163;28;20114;-84
2022/05/16 01:46:28;;;;;;;2.67;1.80;;;12.80;99.50;;;;;;4247779;28;20058;-84
2022/05/16 01:48:32;;;;;;;3.67;2.25;;;12.90;99.50;;;;;;4247551;28;20054;-84
2022/05/16 01:50:33;;;;;;;5.50;2.03;;;12.90;99.40;;;;;;4229083;28;20043;-83
2022/05/16 01:52:33;;;;;;;4.93;1.50;;;12.80;99.40;;;;;;4247272;28;20046;-84
2022/05/16 01:54:34;;;;;;;3.80;1.58;;;12.80;99.30;;;;;;4228595;28;20442;-84
2022/05/16 01:56:36;;;;;;;5.82;1.80;;;12.80;99.30;;;;;;4247330;28;20039;-84
2022/05/16 01:58:37;;;;;;;6.65;2.17;;;12.80;99.20;;;;;;4247812;28;20130;-84
2022/05/16 02:00:39;;;;;;;4.20;1.60;;;12.80;99.10;;;;;;4247492;28;20514;-84
2022/05/16 02:02:42;;;;;;;2.38;1.55;;;12.80;99.10;;;;;;4247257;28;20043;-84
2022/05/16 02:04:43;;;;;;;3.83;1.35;;;12.80;99.00;;;;;;4245904;27;20519;-84
2022/05/16 02:06:44;;;;;;;2.90;1.13;;;12.80;99.10;;;;;;4247611;28;20098;-84
2022/05/16 02:08:47;;;;;;;5.20;1.73;;;12.80;99.30;;;;;;4246330;28;20050;-83
2022/05/16 02:10:48;;;;;;;3.70;1.60;;;12.80;98.90;;;;;;4247712;28;20384;-83
2022/05/16 02:12:49;;;;;;;5.95;2.78;;;12.70;99.10;;;;;;4247743;28;20039;-83
2022/05/16 02:14:50;;;;;;;3.67;1.48;;;12.70;98.80;;;;;;4247334;28;20090;-84
2022/05/16 02:16:51;;;;;;;2.80;1.27;;;12.70;98.70;;;;;;4248405;28;20039;-84
2022/05/16 02:24:38;;;;;;;3.55;1.63;;;12.70;98.60;;;;;;4256283;27;1272852;-84
2022/05/16 02:25:36;;;;;;;;;;;12.70;98.50;;;;;;4263389;27;20130;-83
2022/05/16 02:27:37;;;;;;;3.25;1.23;;;12.60;98.60;;;;;;4263194;27;19930;-85
2022/05/16 02:29:38;;;;;;;5.03;1.33;;;12.60;98.20;;;;;;4262971;27;20049;-83
2022/05/16 02:31:39;;;;;;;5.00;1.30;;;12.50;98.10;;;;;;4262866;27;20078;-84
2022/05/16 02:33:40;;;;;;;4.57;2.00;;;12.60;98.10;;;;;;4261931;27;20494;-83
2022/05/16 02:35:42;;;;;;;5.60;1.75;;;13.50;98.30;;;;;;4262295;27;20444;-84
2022/05/16 02:37:43;;;;;;;4.40;1.77;;;12.60;98.10;;;;;;4261495;27;20075;-83
2022/05/16 02:39:45;;;;;;;3.88;1.77;;;12.50;98.00;;;;;;4275366;27;20483;-85
2022/05/16 02:41:45;;;;;;;3.05;1.20;;;12.50;98.00;;;;;;4227189;28;20044;-85
2022/05/16 02:43:46;;;;;;;4.68;1.40;;;12.50;98.00;;;;;;4244374;28;20131;-84
2022/05/16 02:45:47;;;;;;;3.47;1.45;;;12.60;97.90;;;;;;4244407;28;20054;-85
2022/05/16 02:47:48;;;;;;;6.45;1.27;;;12.50;97.80;;;;;;4260426;27;20050;-83
2022/05/16 02:49:49;;;;;;;4.63;1.40;;;12.50;97.80;;;;;;4262101;27;20429;-82
2022/05/16 02:51:50;;;;;;;2.97;1.30;;;12.60;97.80;;;;;;4262105;27;20039;-82
2022/05/16 02:53:51;;;;;;;4.07;1.70;;;12.50;97.70;;;;;;4244379;28;20410;-84
2022/05/16 02:55:52;;;;;;;3.92;1.30;;;12.50;97.80;;;;;;4247093;28;20126;-83
2022/05/16 02:57:52;;;;;;;2.90;1.27;;;13.30;97.90;;;;;;4244794;28;20509;-83
2022/05/16 02:59:54;;;;;;;3.40;1.30;;;12.50;97.70;;;;;;4243966;28;20526;-84
2022/05/16 03:01:55;;;;;;;4.65;1.20;;;12.40;97.70;;;;;;4243773;28;20526;-84
2022/05/16 03:03:55;;;;;;;4.78;1.20;;;12.40;97.70;;;;;;4243625;28;20046;-83
2022/05/16 03:05:56;;;;;;;4.90;1.40;;;12.40;97.70;;;;;;4261783;27;20046;-83
2022/05/16 03:07:58;;;;;;;3.33;1.50;;;12.40;97.70;;;;;;4260045;27;20039;-83
2022/05/16 03:09:59;;;;;;;4.13;1.48;;;12.40;97.70;;;;;;4232204;28;20513;-83
2022/05/16 03:12:00;;;;;;;2.38;1.30;;;12.40;97.70;;;;;;4242964;28;20043;-83
2022/05/16 03:14:01;;;;;;;5.82;1.90;;;12.40;98.00;;;;;;4261066;27;20114;-84
2022/05/16 03:16:03;;;;;;;3.80;1.60;;;12.30;97.60;;;;;;4243330;28;20437;-84
2022/05/16 03:18:03;;;;;;;2.78;1.63;;;12.40;97.60;;;;;;4261510;27;20050;-84
2022/05/16 03:20:07;;;;;;;4.55;1.10;;;12.30;97.60;;;;;;4261135;27;20051;-84
2022/05/16 03:22:08;;;;;;;7.30;1.33;;;12.30;97.70;;;;;;4261496;27;20058;-84
2022/05/16 03:24:09;;;;;;;6.20;1.48;;;12.30;97.70;;;;;;4260927;27;20043;-84
2022/05/16 03:26:10;;;;;;;1.92;1.40;;;12.30;97.60;;;;;;4257161;27;20051;-84
2022/05/16 03:28:11;;;;;;;3.00;1.05;;;12.30;97.60;;;;;;4261408;27;20035;-84
2022/05/16 03:30:13;;;;;;;3.05;1.63;;;12.30;97.60;;;;;;4242992;28;20420;-84
2022/05/16 03:32:14;;;;;;;4.55;1.35;;;12.30;97.70;;;;;;4249845;27;20094;-84
2022/05/16 03:34:14;;;;;;;2.45;1.30;;;12.30;97.70;;;;;;4249806;27;20047;-84
2022/05/16 03:36:15;;;;;;;3.42;1.40;;;12.20;97.70;;;;;;4250287;27;20444;-84
2022/05/16 03:40:45;;;;;;;1.75;1.17;;;12.20;97.70;;;;;;4250042;27;20047;-84
2022/05/16 03:42:46;;;;;;;5.45;2.03;;;12.20;97.70;;;;;;4232079;28;20648;-84
2022/05/16 03:44:47;;;;;;;1.40;0.90;;;12.20;97.70;;;;;;4231268;28;20357;-84
2022/05/16 03:46:48;;;;;;;4.10;2.30;;;12.20;97.60;;;;;;4249978;27;20050;-84
2022/05/16 03:48:49;;;;;;;1.65;1.00;;;12.20;97.60;;;;;;4249871;27;20047;-84
2022/05/16 03:50:50;;;;;;;4.47;1.30;;;12.10;97.60;;;;;;4249968;27;20066;-84
2022/05/16 03:52:51;;;;;;;6.40;1.55;;;12.20;97.60;;;;;;4249966;27;20055;-84
2022/05/16 03:54:51;;;;;;;2.78;1.40;;;12.10;97.60;;;;;;4249633;27;20049;-83
2022/05/16 03:56:53;;;;;;;4.25;1.30;;;12.00;97.50;;;;;;4249847;27;20047;-84
2022/05/16 03:58:55;;;;;;;3.50;1.67;;;12.10;97.60;;;;;;4249832;27;20148;-83
2022/05/16 04:00:56;;;;;;;6.90;1.40;;;12.10;97.60;;;;;;4232162;28;20044;-84
2022/05/16 04:02:57;;;;;;;3.30;1.10;;;12.10;97.60;;;;;;4214790;28;20080;-83
2022/05/16 04:04:58;;;;;;;2.20;1.13;;;12.10;97.60;;;;;;4249508;27;20543;-83
2022/05/16 04:06:59;;;;;;;4.82;1.25;;;12.10;97.60;;;;;;4249592;27;20043;-84
2022/05/16 04:09:01;;;;;;;8.25;1.95;;;12.10;97.60;;;;;;4249527;27;20050;-84
2022/05/16 04:11:03;;;;;;;6.63;1.67;;;12.20;97.60;;;;;;4249875;27;20084;-83
2022/05/16 04:13:04;;;;;;;2.80;1.33;;;12.40;97.50;;;;;;4250132;27;20479;-83
2022/05/16 04:15:05;;;;;;;3.92;1.27;;;12.10;97.50;;;;;;4250033;27;20091;-84
2022/05/16 04:17:06;;;;;;;2.60;1.25;;;12.10;97.50;;;;;;4249337;27;20043;-84
2022/05/16 04:19:07;;;;;;;3.42;1.30;;;12.10;97.50;;;;;;4250147;27;20509;-84
2022/05/16 04:21:08;;;;;;;4.65;1.50;;;12.20;97.50;;;;;;4250128;27;20047;-83
2022/05/16 04:23:09;;;;;;;3.08;1.30;;;12.20;97.50;;;;;;4249883;27;20043;-84
2022/05/16 04:25:13;;;;;;;4.25;1.25;;;12.10;97.40;;;;;;4249956;27;20039;-84
2022/05/16 04:27:14;;;;;;;3.88;1.50;;;12.10;97.40;;;;;;4249518;27;20047;-83
2022/05/16 04:29:15;;;;;;;4.15;1.13;;;12.10;97.50;;;;;;4250114;27;20053;-83
2022/05/16 04:31:15;;;;;;;3.47;1.10;;;12.20;97.50;;;;;;4249733;27;20039;-83
2022/05/16 04:33:18;;;;;;;2.25;1.20;;;12.20;97.50;;;;;;4231854;28;20043;-85
2022/05/16 04:35:19;;;;;;;4.85;1.42;;;12.20;97.40;;;;;;4250160;27;20391;-83
2022/05/16 04:37:20;;;;;;;2.63;1.30;;;12.10;97.50;;;;;;4249406;27;20074;-84
2022/05/16 04:39:20;;;;;;;2.15;1.42;;;12.10;97.40;;;;;;4249466;27;20031;-83
2022/05/16 04:43:41;;;;;;;;;;;12.20;97.40;;;;;;4248947;27;20126;-83
2022/05/16 04:45:41;;;;;;;5.45;1.33;;;12.20;97.80;;;;;;4231022;28;19927;-83
2022/05/16 04:47:46;;;;;;;3.03;1.10;;;12.20;97.40;;;;;;4249106;27;20039;-83
2022/05/16 04:49:47;;;;;;;3.03;1.70;;;12.20;97.30;;;;;;4248800;27;20487;-83
2022/05/16 04:51:47;;;;;;;3.42;1.35;;;12.20;97.40;;;;;;4248905;27;20074;-84
2022/05/16 04:53:48;;;;;;;3.50;1.48;;;12.30;97.30;;;;;;4249125;27;20066;-83
2022/05/16 04:55:49;;;;;;;3.42;1.38;;;12.30;97.40;;;;;;4249116;27;20046;-83
2022/05/16 04:57:50;;;;;;;4.15;1.45;;;12.30;97.30;;;;;;4248231;27;20384;-84
2022/05/16 04:59:51;;;;;;;2.55;1.83;;;12.40;97.40;;;;;;4230193;28;20504;-83
2022/05/16 05:01:52;;;;;;;6.60;1.35;;;12.40;97.30;;;;;;4248995;27;20070;-83
2022/05/16 05:03:52;;;;;;;5.10;1.75;;;12.50;97.20;;;;;;4248736;27;20043;-83
2022/05/16 05:05:53;;;;;;;4.15;1.15;;;12.50;97.20;;;;;;4248751;27;20043;-84
2022/05/16 05:07:54;;;;;;;5.07;1.52;;;12.60;97.10;;;;;;4248250;27;20551;-83
2022/05/16 05:14:34;;;;;;;5.63;1.60;;;12.70;96.90;;;;;;4230365;28;20463;-84
2022/05/16 05:16:37;;;;;;;4.18;1.90;;;12.70;96.90;;;;;;4230684;28;20140;-82
2022/05/16 05:18:39;;;;;;;4.20;1.58;;;12.80;97.00;;;;;;4249680;27;20043;-84
2022/05/16 05:20:41;;;;;;;4.25;1.67;;;12.80;96.90;;;;;;4248268;27;20095;-83
2022/05/16 05:22:44;;;;;;;3.90;1.50;;;12.80;96.80;;;;;;4230364;28;20043;-84
2022/05/16 05:24:45;;;;;;;4.03;1.50;;;13.00;96.70;;;;;;4248395;27;20498;-83
2022/05/16 05:26:48;;;;;;;5.40;1.63;;;13.00;96.60;;;;;;4248381;27;20121;-83
2022/05/16 05:28:49;;;;;;;3.95;1.60;;;13.00;96.50;;;;;;4247943;27;20027;-83
2022/05/16 05:30:51;;;;;;;14.13;2.22;;;13.10;96.50;;;;;;4248168;27;20047;-83
2022/05/16 05:32:52;;;;;;;4.90;1.50;;;13.10;96.50;;;;;;4247732;27;20478;-83
2022/05/16 05:34:53;;;;;;;3.33;1.40;;;13.10;96.40;;;;;;4247887;27;20043;-84
2022/05/16 05:36:56;;;;;;;5.22;1.90;;;13.10;96.30;;;;;;4247702;27;20122;-84
2022/05/16 05:38:57;;;;;;;8.45;1.77;;;13.10;96.40;;;;;;4248223;27;20388;-83
2022/05/16 05:40:58;;;;;;;5.00;1.60;;;13.10;96.50;;;;;;4247912;27;20156;-83
2022/05/16 05:43:04;;;;;;;3.08;1.65;;;13.20;96.40;;;;;;4247886;27;20047;-83
2022/05/16 05:45:06;;;;;;;7.88;1.60;;;13.20;96.50;;;;;;4247497;27;20123;-83
2022/05/16 05:47:07;;;;;;;4.07;2.15;;;13.20;96.40;;;;;;4247812;27;20043;-83
2022/05/16 05:49:12;;;;;;;4.53;1.40;;;13.20;96.50;;;;;;4228902;28;20104;-83
2022/05/16 05:51:14;;;;;;;3.55;1.70;;;13.30;96.50;;;;;;4248023;27;20035;-83
2022/05/16 05:53:15;;;;;;;2.67;1.50;;;;;;;;;;4247539;27;20043;-83
2022/05/16 05:55:17;;;;;;;8.38;1.55;;;;;;;;;;4247688;27;20046;-83
2022/05/16 05:57:18;;;;;;;4.85;1.70;;;;;;;;;;4248163;27;20039;-83
2022/05/16 05:59:19;;;;;;;5.20;1.73;;;;;;;;;;4247817;27;20051;-84
2022/05/16 06:01:21;;;;;;;2.65;1.60;;;;;;;;;;4229570;28;20043;-84
2022/05/16 06:03:21;;;;;;;10.68;1.70;;;13.30;96.90;;;;;;4247608;27;20051;-83
2022/05/16 06:05:22;;;;;;;4.38;1.63;;;13.70;96.20;;;;;;4247495;27;20483;-84
2022/05/16 06:07:23;;;;;;;5.50;2.10;;;13.70;96.20;;;;;;4229324;28;20580;-84
2022/05/16 06:09:24;;;;;;;3.85;1.70;;;13.70;96.40;;;;;;4247880;27;20530;-84
2022/05/16 06:11:28;;;;;;;3.17;1.27;;;13.70;96.20;;;;;;4249424;27;20126;-84
2022/05/16 06:13:29;;;;;;;8.05;1.65;;;13.70;96.20;;;;;;4229633;28;20055;-84
2022/05/16 06:15:29;;;;;;;4.30;1.67;;;13.80;96.30;;;;;;4228878;28;20439;-84
2022/05/16 06:17:30;;;;;;;2.70;1.55;;;13.70;96.30;;;;;;4212770;28;20435;-83
2022/05/16 06:19:31;;;;;;;4.75;1.60;;;13.80;96.30;;;;;;4247208;27;20046;-84
2022/05/16 06:21:32;;;;;;;4.50;1.60;;;13.80;96.30;;;;;;4229374;28;20050;-83
2022/05/16 06:23:32;;;;;;;7.13;2.13;;;13.90;96.30;;;;;;4247629;28;20134;-84
2022/05/16 06:25:34;;;;;;;3.33;1.60;;;13.90;96.30;;;;;;4247604;28;20050;-82
2022/05/16 06:27:35;;;;;;;8.90;3.15;;;14.00;96.20;;;;;;4247383;28;20051;-84
2022/05/16 06:29:35;;;;;;;4.20;1.70;;;14.10;96.30;;;;;;4247615;28;20897;-84
2022/05/16 06:31:36;;;;;;;3.58;1.50;;;14.10;96.20;;;;;;4229734;28;20111;-84
2022/05/16 06:33:37;;;;;;;5.65;2.22;;;14.10;96.20;;;;;;4247560;28;20046;-83
2022/05/16 06:35:38;;;;;;;8.98;2.47;;;14.20;96.20;;;;;;4229367;28;20507;-83
2022/05/16 06:37:39;;;;;;;5.55;1.80;;;14.20;96.20;;;;;;4248011;28;20039;-84
2022/05/16 06:39:39;;;;;;;2.60;1.60;;;14.40;96.00;;;;;;4248592;28;20103;-84
2022/05/16 06:41:42;;;;;;;5.43;1.95;;;14.50;95.90;;;;;;4249520;28;20106;-84
2022/05/16 06:43:42;;;;;;;4.90;1.55;;;14.60;95.70;;;;;;4248827;28;20110;-84
2022/05/16 06:45:44;;;;;;;2.88;1.58;;;;;;;;;;4249231;28;20047;-84
2022/05/16 06:47:45;;;;;;;5.68;1.50;;;15.00;95.20;;;;;;4247872;28;20054;-84
2022/05/16 06:49:45;;;;;;;4.82;1.80;;;15.10;95.10;;;;;;4248532;28;20479;-83
2022/05/16 06:51:48;;;;;;;5.57;1.40;;;15.20;94.90;;;;;;4249199;28;20046;-83
2022/05/16 06:53:50;;;;;;;5.75;1.90;;;15.40;94.80;;;;;;4232925;28;20144;-83
2022/05/16 06:55:51;;;;;;;6.78;1.55;;;15.60;94.50;;;;;;4233785;28;20071;-84
2022/05/16 06:57:52;;;;;;;4.20;1.38;;;15.70;94.20;;;;;;4233933;28;20431;-84
2022/05/16 06:59:53;;;;;;;5.70;2.05;;;15.80;94.00;;;;;;4229173;28;20039;-84
2022/05/16 07:01:54;;;;;;;10.15;1.80;;;;;;;;;;4248664;28;20046;-84
2022/05/16 07:03:55;;;;;;;5.50;2.20;;;;;;;;;;4247377;28;20108;-83
2022/05/16 07:05:56;;;;;;;7.05;1.60;;;16.00;93.80;;;;;;4247376;27;20043;-84
2022/05/16 07:07:57;;;;;;;5.60;1.58;;;16.40;93.20;;;;;;4250545;27;20047;-84
2022/05/16 07:09:58;;;;;;;5.18;1.80;;;16.50;92.90;;;;;;4250483;27;20531;-83
2022/05/16 07:11:58;;;;;;;5.93;2.10;;;16.50;92.60;;;;;;4231820;28;20103;-83
2022/05/16 07:13:59;;;;;;;6.32;1.65;;;16.60;92.40;;;;;;4250482;27;20372;-84
2022/05/16 07:16:01;;;;;;;7.95;2.10;;;16.70;92.30;;;;;;4249869;27;20133;-84
2022/05/16 07:18:01;;;;;;;4.47;1.67;;;16.90;92.00;;;;;;4249978;27;20046;-84
2022/05/16 07:20:03;;;;;;;7.80;1.50;;;17.00;92.00;;;;;;4231741;28;20542;-84
2022/05/16 07:22:10;;;;;;;5.68;1.63;;;17.00;91.80;;;;;;4232048;28;20114;-84
2022/05/16 07:24:12;;;;;;;2.67;1.67;;;17.10;91.70;;;;;;4250309;27;20057;-83
2022/05/16 07:28:32;;;;;;;3.28;1.20;;;17.20;91.60;;;;;;4250371;27;20074;-84
2022/05/16 07:30:35;;;;;;;14.90;2.47;;;17.40;91.40;;;;;;4250021;27;20042;-85
2022/05/16 07:32:41;;;;;;;5.00;1.50;;;17.40;91.20;;;;;;4250184;27;20550;-84
2022/05/16 07:34:42;;;;;;;3.88;1.80;;;17.50;91.00;;;;;;4249872;27;20479;-84
2022/05/16 07:36:43;;;;;;;4.70;1.98;;;17.50;90.90;;;;;;4249365;27;20143;-84
2022/05/16 07:38:43;;;;;;;8.38;2.03;;;17.70;90.90;;;;;;4231480;28;20050;-85
2022/05/16 07:40:44;;;;;;;8.13;1.58;;;17.80;90.60;;;;;;4249487;27;20103;-84
2022/05/16 07:42:45;;;;;;;6.38;1.98;;;18.10;90.50;;;;;;4250010;27;20043;-83
2022/05/16 07:44:47;;;;;;;7.18;1.67;;;18.30;89.80;;;;;;4249884;27;20082;-84
2022/05/16 07:46:49;;;;;;;2.90;1.45;;;;;;;;;;4249877;27;20403;-84
2022/05/16 07:48:50;;;;;;;6.22;1.70;;;18.50;88.90;;;;;;4231438;28;20040;-84
2022/05/16 07:50:52;;;;;;;7.13;1.75;;;;;;;;;;4249519;27;20092;-84
2022/05/16 07:52:54;;;;;;;7.80;2.13;;;;;;;;;;4231841;28;20051;-84
2022/05/16 07:54:56;;;;;;;7.25;1.60;;;;;;;;;;4250371;27;20621;-84
2022/05/16 07:56:58;;;;;;;7.13;1.73;;;;;;;;;;4231553;28;20131;-84
2022/05/16 07:58:59;;;;;;;6.03;1.40;;;;;;;;;;4232447;28;20364;-84
2022/05/16 08:01:00;;;;;;;5.25;1.45;;;;;;;;;;4249824;27;20479;-84
2022/05/16 08:03:02;;;;;;;7.13;1.75;;;;;;;;;;4252468;27;20451;-84
2022/05/16 08:05:03;;;;;;;7.45;1.60;;;;;;;;;;4234128;28;20055;-84
2022/05/16 08:07:04;;;;;;;6.15;1.40;;;;;;;;;;4252466;27;20108;-84
2022/05/16 08:11:25;;;;;;;4.97;1.63;;;18.80;88.00;;;;;;4253151;27;20205;-84
2022/05/16 08:13:27;;;;;;;5.20;1.83;;;20.20;80.30;;;;;;4250380;27;20443;-84
2022/05/16 08:15:29;;;;;;;7.80;1.50;;;;;;;;;;4249197;27;20120;-84
2022/05/16 08:17:31;;;;;;;5.57;2.05;;;;;;;;;;4230239;28;20040;-84
2022/05/16 08:19:35;;;;;;;3.88;1.73;;;;;;;;;;4248941;27;20040;-84
2022/05/16 08:21:36;;;;;;;4.95;1.98;;;;;;;;;;4249476;27;20487;-84
2022/05/16 08:23:38;;;;;;;6.25;1.80;;;;;;;;;;4248974;27;20039;-84
2022/05/16 08:25:39;;;;;;;4.97;1.80;;;;;;;;;;4249128;27;20541;-83
2022/05/16 08:27:40;;;;;;;5.00;2.00;;;;;;;;;;4248855;27;20046;-83
2022/05/16 08:29:41;;;;;;;7.85;1.80;;;;;;;;;;4249285;27;20039;-84
2022/05/16 08:31:44;;;;;;;7.72;1.67;;;;;;;;;;4249213;27;20140;-84
2022/05/16 08:33:45;;;;;;;7.25;1.67;;;;;;;;;;4248857;27;20043;-83
2022/05/16 08:39:52;;;;;;;5.25;1.60;;;;;;;;;;4248837;27;20047;-83
2022/05/16 08:40:36;;;;;;;2.80;1.33;;;;;;;;;;4248868;27;20046;-84
2022/05/16 08:42:49;;;;;;;4.78;1.48;;;;;;;;;;4248633;27;20099;-84
2022/05/16 08:44:58;;;;;;;5.78;1.92;;;;;;;;;;4230743;28;20088;-84
2022/05/16 08:47:11;;;;;;;4.72;1.60;;;;;;;;;;4248908;27;20066;-84
2022/05/16 08:49:31;;;;;;;7.43;1.83;;;;;;;;;;4248622;27;20043;-84
2022/05/16 08:51:33;;;;;;;8.98;1.95;;;;;;;;;;4230681;28;20395;-84
2022/05/16 08:53:34;;;;;;;5.15;1.65;;;;;;;;;;4248819;27;20419;-84
2022/05/16 08:55:40;;;;;;;5.22;1.52;;;;;;;;;;4248745;27;20039;-84
2022/05/16 08:57:44;;;;;;;7.40;1.67;;;;;;;;;;4248790;27;20039;-84
2022/05/16 08:59:48;;;;;;;5.18;1.83;;;;;;;;;;4230307;28;20042;-84
2022/05/16 09:01:51;;;;;;;3.85;1.70;;;;;;;;;;4248569;27;20394;-84
2022/05/16 09:03:55;;;;;;;3.65;1.60;;;;;;;;;;4248303;27;20039;-85
2022/05/16 09:05:58;;;;;;;5.63;1.48;;;;;;;;;;4248657;27;20053;-85
2022/05/16 09:08:00;;;;;;;4.13;1.52;;;;;;;;;;4248632;27;20047;-85
2022/05/16 09:10:01;;;;;;;5.10;1.67;;;;;;;;;;4248517;27;20431;-83
2022/05/16 09:12:11;;;;;;;5.15;1.40;;;;;;;;;;4229988;28;20043;-84
2022/05/16 09:14:29;;;;;;;13.77;2.08;;;;;;;;;;4248315;27;20047;-83
2022/05/16 09:16:39;;;;;;;11.25;2.20;;;;;;;;;;4229953;28;20539;-83
2022/05/16 09:18:57;;;;;;;5.75;1.50;;;;;;;;;;4248298;27;20043;-83
2022/05/16 09:21:01;;;;;;;6.20;1.60;;;;;;;;;;4247835;27;20058;-84
2022/05/16 09:23:09;;;;;;;4.53;1.40;;;;;;;;;;4248237;27;20054;-83
2022/05/16 09:25:13;;;;;;;7.85;1.23;;;;;;;;;;4248226;27;20047;-83
2022/05/16 09:28:34;;;;;;;11.23;1.67;;;;;;;;;;4229712;28;20075;-84
2022/05/16 09:29:42;;;;;;;6.72;1.50;;;;;;;;;;4247686;27;20141;-84
2022/05/16 09:31:45;;;;;;;6.75;1.60;;;;;;;;;;4248113;27;20085;-84
2022/05/16 09:33:48;;;;;;;4.85;1.60;;;;;;;;;;4248093;27;20045;-84
2022/05/16 09:36:21;;;;;;;9.32;2.08;;;;;;;;;;4247920;27;20133;-83
2022/05/16 09:38:22;;;;;;;6.78;2.15;;;;;;;;;;4202243;27;20135;-84
2022/05/16 09:40:33;;;;;;;8.48;1.88;;;;;;;;;;4247935;27;20119;-84
2022/05/16 09:42:35;;;;;;;9.27;2.47;;;;;;;;;;4247930;27;20051;-84
2022/05/16 09:44:56;;;;;;;10.43;1.55;;;;;;;;;;4248133;27;20579;-83
2022/05/16 09:47:15;;;;;;;7.28;2.05;;;;;;;;;;4248114;27;20081;-83
2022/05/16 09:49:21;;;;;;;7.82;1.98;;;;;;;;;;4247417;27;20060;-84
2022/05/16 09:51:23;;;;;;;8.10;1.63;;;;;;;;;;4247852;27;20168;-83
2022/05/16 09:53:36;;;;;;;8.35;1.95;;;;;;;;;;4248094;27;20047;-83
2022/05/16 09:55:43;;;;;;;6.93;1.40;;;;;;;;;;4248545;27;20047;-83
2022/05/16 09:57:56;;;;;;;5.70;1.55;;;;;;;;;;4230967;28;20488;-84
2022/05/16 09:59:58;;;;;;;9.90;1.80;;;;;;;;;;4249047;27;20046;-83
2022/05/16 10:02:09;;;;;;;3.40;1.35;;;;;;;;;;4248162;27;20043;-83
2022/05/16 10:04:12;;;;;;;9.27;1.67;;;;;;;;;;4248006;27;20054;-83
2022/05/16 10:06:33;;;;;;;7.90;1.67;;;;;;;;;;4229901;28;20040;-83
2022/05/16 10:08:41;;;;;;;10.32;2.22;;;;;;;;;;4247349;27;20050;-84
2022/05/16 10:10:42;;;;;;;10.73;2.13;;;;;;;;;;4247873;27;20507;-83
2022/05/16 10:12:44;;;;;;;6.32;1.60;;;;;;;;;;4247199;27;20499;-84
2022/05/16 10:14:46;;;;;;;8.02;1.50;;;;;;;;;;4229058;28;20047;-84
2022/05/16 10:16:49;;;;;;;7.78;1.77;;;;;;;;;;4247631;27;20058;-84
2022/05/16 10:18:52;;;;;;;7.95;1.60;;;;;;;;;;4229107;28;20054;-83
2022/05/16 10:20:59;;;;;;;5.85;1.63;;;;;;;;;;4246994;27;20066;-84
2022/05/16 10:23:07;;;;;;;4.72;1.77;;;;;;;;;;4229108;28;20388;-84
2022/05/16 10:25:10;;;;;;;5.95;1.55;;;;;;;;;;4247536;28;20039;-84
2022/05/16 10:27:12;;;;;;;8.13;1.73;;;;;;;;;;4247262;28;20043;-84
2022/05/16 10:29:15;;;;;;;5.55;1.58;;;;;;;;;;4247526;28;20491;-84
2022/05/16 10:33:41;;;;;;;4.95;1.80;;;;;;;;;;4247464;28;20407;-84
2022/05/16 10:36:02;;;;;;;7.15;2.08;;;;;;;;;;4249378;28;20141;-83
2022/05/16 10:38:07;;;;;;;5.28;1.63;;;;;;;;;;4229653;28;20044;-84
2022/05/16 10:40:10;;;;;;;11.55;1.65;;;;;;;;;;4246987;27;20387;-84
2022/05/16 10:42:32;;;;;;;6.03;2.10;;;;;;;;;;4232058;28;20414;-84
2022/05/16 10:44:39;;;;;;;6.95;1.70;;;;;;;;;;4250733;27;20062;-84
2022/05/16 10:46:44;;;;;;;10.80;1.60;;;;;;;;;;4250905;27;20110;-84
2022/05/16 10:48:46;;;;;;;8.77;2.00;;;;;;;;;;4250947;27;20082;-84
2022/05/16 10:50:50;;;;;;;7.32;1.48;;;;;;;;;;4250364;27;20081;-84
2022/05/16 10:52:53;;;;;;;7.30;1.63;;;;;;;;;;4248402;27;20059;-84
2022/05/16 10:54:54;;;;;;;9.27;1.75;;;;;;;;;;4250749;27;20501;-84
2022/05/16 10:56:55;;;;;;;4.47;1.65;;;;;;;;;;4250739;27;20039;-84
2022/05/16 10:59:02;;;;;;;5.78;1.60;;;;;;;;;;4250606;27;20125;-84
2022/05/16 11:01:07;;;;;;;7.93;2.35;;;;;;;;;;4250013;27;20483;-84
2022/05/16 11:03:08;;;;;;;9.18;2.13;;;;;;;;;;4250346;27;20123;-84
2022/05/16 11:05:20;;;;;;;10.63;1.98;;;;;;;;;;4250414;27;20046;-84
2022/05/16 11:07:27;;;;;;;6.95;1.67;;;;;;;;;;4232649;28;20039;-83
2022/05/16 11:09:39;;;;;;;8.10;2.35;;;;;;;;;;4250682;27;20081;-84
2022/05/16 11:11:50;;;;;;;8.02;1.65;;;;;;;;;;4250451;27;20126;-84
2022/05/16 11:14:02;;;;;;;6.93;1.98;;;;;;;;;;4231867;28;20035;-83
2022/05/16 11:16:08;;;;;;;6.07;1.70;;;;;;;;;;4250469;27;20556;-84
2022/05/16 11:18:21;;;;;;;7.20;2.05;;;;;;;;;;4250352;27;20380;-84
2022/05/16 11:20:22;;;;;;;4.57;1.85;;;;;;;;;;4249752;27;20058;-84
2022/05/16 11:22:37;;;;;;;5.53;1.80;;;;;;;;;;4250529;27;20054;-84
2022/05/16 11:24:57;;;;;;;9.98;1.65;;;;;;;;;;4250250;27;20043;-86
2022/05/16 11:27:03;;;;;;;8.10;1.73;;;;;;;;;;4249962;27;20035;-85
2022/05/16 11:29:17;;;;;;;5.88;1.70;;;;;;;;;;4231717;28;20043;-85
2022/05/16 11:31:20;;;;;;;7.80;1.50;;;;;;;;;;4231985;28;20050;-85
2022/05/16 11:33:22;;;;;;;4.85;1.83;;;;;;;;;;4231843;28;20052;-83
2022/05/16 11:35:34;;;;;;;9.30;2.58;;;;;;;;;;4250210;27;20480;-84